sensor_id;sensor_type;location;lat;lon;timestamp;temperature;humidity
7196;DHT22;3639;51.308;5.624;2023-03-23T00:01:11;12.40;99.90
7196;DHT22;3639;51.308;5.624;2023-03-23T00:03:39;12.40;99.90
7196;DHT22;3639;51.308;5.624;2023-03-23T00:06:05;12.40;99.90
7196;DHT22;3639;51.308;5.624;2023-03-23T00:08:36;12.40;99.90
7196;DHT22;3639;51.308;5.624;2023-03-23T00:11:16;12.40;99.90
7196;DHT22;3639;51.308;5.624;2023-03-23T00:13:45;12.40;99.90
7196;DHT22;3639;51.308;5.624;2023-03-23T00:16:16;12.40;99.90
7196;DHT22;3639;51.308;5.624;2023-03-23T00:18:50;12.50;99.90
7196;DHT22;3639;51.308;5.624;2023-03-23T00:21:23;12.40;99.90
7196;DHT22;3639;51.308;5.624;2023-03-23T00:23:51;12.40;99.90
7196;DHT22;3639;51.308;5.624;2023-03-23T00:26:17;12.40;99.90
7196;DHT22;3639;51.308;5.624;2023-03-23T00:28:43;12.40;99.90
7196;DHT22;3639;51.308;5.624;2023-03-23T00:31:12;12.40;99.90
7196;DHT22;3639;51.308;5.624;2023-03-23T00:33:40;12.50;99.90
7196;DHT22;3639;51.308;5.624;2023-03-23T00:36:10;12.50;99.90
7196;DHT22;3639;51.308;5.624;2023-03-23T00:38:37;12.50;99.90
7196;DHT22;3639;51.308;5.624;2023-03-23T00:41:03;12.50;99.90
7196;DHT22;3639;51.308;5.624;2023-03-23T00:43:30;12.40;99.90
7196;DHT22;3639;51.308;5.624;2023-03-23T00:45:56;12.50;99.90
7196;DHT22;3639;51.308;5.624;2023-03-23T00:48:27;12.50;99.90
7196;DHT22;3639;51.308;5.624;2023-03-23T00:50:53;12.40;99.90
7196;DHT22;3639;51.308;5.624;2023-03-23T00:53:19;12.50;99.90
7196;DHT22;3639;51.308;5.624;2023-03-23T00:55:46;12.50;99.90
7196;DHT22;3639;51.308;5.624;2023-03-23T00:58:12;12.50;99.90
7196;DHT22;3639;51.308;5.624;2023-03-23T01:00:39;12.50;99.90
7196;DHT22;3639;51.308;5.624;2023-03-23T01:03:05;12.50;99.90
7196;DHT22;3639;51.308;5.624;2023-03-23T01:05:36;12.50;99.90
7196;DHT22;3639;51.308;5.624;2023-03-23T01:08:03;12.50;99.90
7196;DHT22;3639;51.308;5.624;2023-03-23T01:10:30;12.50;99.90
7196;DHT22;3639;51.308;5.624;2023-03-23T01:13:01;12.60;99.90
7196;DHT22;3639;51.308;5.624;2023-03-23T01:15:28;12.50;99.90
7196;DHT22;3639;51.308;5.624;2023-03-23T01:17:54;12.60;99.90
7196;DHT22;3639;51.308;5.624;2023-03-23T01:20:19;12.50;99.90
7196;DHT22;3639;51.308;5.624;2023-03-23T01:22:45;12.50;99.90
7196;DHT22;3639;51.308;5.624;2023-03-23T01:25:12;12.60;99.90
7196;DHT22;3639;51.308;5.624;2023-03-23T01:27:38;12.60;99.90
7196;DHT22;3639;51.308;5.624;2023-03-23T01:30:06;12.50;99.90
7196;DHT22;3639;51.308;5.624;2023-03-23T01:32:32;12.50;99.90
7196;DHT22;3639;51.308;5.624;2023-03-23T01:34:58;12.60;99.90
7196;DHT22;3639;51.308;5.624;2023-03-23T01:37:24;12.60;99.90
7196;DHT22;3639;51.308;5.624;2023-03-23T01:39:54;12.50;99.90
7196;DHT22;3639;51.308;5.624;2023-03-23T01:42:22;12.50;99.90
7196;DHT22;3639;51.308;5.624;2023-03-23T01:47:14;12.40;99.90
7196;DHT22;3639;51.308;5.624;2023-03-23T01:49:43;12.50;99.90
7196;DHT22;3639;51.308;5.624;2023-03-23T01:52:32;12.50;99.90
7196;DHT22;3639;51.308;5.624;2023-03-23T01:54:59;12.60;99.90
7196;DHT22;3639;51.308;5.624;2023-03-23T01:57:26;12.50;99.90
7196;DHT22;3639;51.308;5.624;2023-03-23T01:59:53;12.50;99.90
7196;DHT22;3639;51.308;5.624;2023-03-23T02:02:22;12.50;99.90
7196;DHT22;3639;51.308;5.624;2023-03-23T02:04:48;12.60;99.90
7196;DHT22;3639;51.308;5.624;2023-03-23T02:07:18;12.60;99.90
7196;DHT22;3639;51.308;5.624;2023-03-23T02:09:45;12.60;99.90
7196;DHT22;3639;51.308;5.624;2023-03-23T02:12:11;12.60;99.90
7196;DHT22;3639;51.308;5.624;2023-03-23T02:14:37;12.50;99.90
7196;DHT22;3639;51.308;5.624;2023-03-23T02:17:10;12.60;99.90
7196;DHT22;3639;51.308;5.624;2023-03-23T02:33:38;12.50;99.90
7196;DHT22;3639;51.308;5.624;2023-03-23T02:39:30;12.60;99.90
7196;DHT22;3639;51.308;5.624;2023-03-23T02:41:54;12.50;99.90
7196;DHT22;3639;51.308;5.624;2023-03-23T02:44:23;12.50;99.90
7196;DHT22;3639;51.308;5.624;2023-03-23T02:46:51;12.50;99.90
7196;DHT22;3639;51.308;5.624;2023-03-23T02:49:18;12.50;99.90
7196;DHT22;3639;51.308;5.624;2023-03-23T02:51:46;12.50;99.90
7196;DHT22;3639;51.308;5.624;2023-03-23T02:54:15;12.50;99.90
7196;DHT22;3639;51.308;5.624;2023-03-23T02:56:42;12.50;99.90
7196;DHT22;3639;51.308;5.624;2023-03-23T02:59:08;12.50;99.90
7196;DHT22;3639;51.308;5.624;2023-03-23T03:04:13;12.50;99.90
7196;DHT22;3639;51.308;5.624;2023-03-23T03:07:21;12.50;99.90
7196;DHT22;3639;51.308;5.624;2023-03-23T03:10:16;12.50;99.90
7196;DHT22;3639;51.308;5.624;2023-03-23T03:20:49;12.50;99.90
7196;DHT22;3639;51.308;5.624;2023-03-23T03:23:16;12.40;99.90
7196;DHT22;3639;51.308;5.624;2023-03-23T03:25:43;12.40;99.90
7196;DHT22;3639;51.308;5.624;2023-03-23T03:28:18;12.40;99.90
7196;DHT22;3639;51.308;5.624;2023-03-23T03:30:49;12.50;99.90
7196;DHT22;3639;51.308;5.624;2023-03-23T03:33:17;12.50;99.90
7196;DHT22;3639;51.308;5.624;2023-03-23T03:35:46;12.50;99.90
7196;DHT22;3639;51.308;5.624;2023-03-23T03:38:12;12.50;99.90
7196;DHT22;3639;51.308;5.624;2023-03-23T03:40:38;12.50;99.90
7196;DHT22;3639;51.308;5.624;2023-03-23T03:43:04;12.50;99.90
7196;DHT22;3639;51.308;5.624;2023-03-23T03:45:31;12.60;99.90
7196;DHT22;3639;51.308;5.624;2023-03-23T03:47:57;12.60;99.90
7196;DHT22;3639;51.308;5.624;2023-03-23T03:50:22;12.60;99.90
7196;DHT22;3639;51.308;5.624;2023-03-23T03:52:48;12.60;99.90
7196;DHT22;3639;51.308;5.624;2023-03-23T03:55:14;12.60;99.90
7196;DHT22;3639;51.308;5.624;2023-03-23T03:57:42;12.60;99.90
7196;DHT22;3639;51.308;5.624;2023-03-23T04:00:09;12.60;99.90
7196;DHT22;3639;51.308;5.624;2023-03-23T04:02:40;12.60;99.90
7196;DHT22;3639;51.308;5.624;2023-03-23T04:05:06;12.60;99.90
7196;DHT22;3639;51.308;5.624;2023-03-23T04:07:33;12.60;99.90
7196;DHT22;3639;51.308;5.624;2023-03-23T04:09:59;12.70;99.90
7196;DHT22;3639;51.308;5.624;2023-03-23T04:12:24;12.70;99.90
7196;DHT22;3639;51.308;5.624;2023-03-23T04:14:50;12.60;99.90
7196;DHT22;3639;51.308;5.624;2023-03-23T04:17:16;12.50;99.90
7196;DHT22;3639;51.308;5.624;2023-03-23T04:19:42;12.60;99.90
7196;DHT22;3639;51.308;5.624;2023-03-23T04:22:08;12.60;99.90
7196;DHT22;3639;51.308;5.624;2023-03-23T04:24:33;12.60;99.90
7196;DHT22;3639;51.308;5.624;2023-03-23T04:27:00;12.70;99.90
7196;DHT22;3639;51.308;5.624;2023-03-23T04:29:27;12.60;99.90
7196;DHT22;3639;51.308;5.624;2023-03-23T04:31:52;12.60;99.90
7196;DHT22;3639;51.308;5.624;2023-03-23T04:34:21;12.60;99.90
7196;DHT22;3639;51.308;5.624;2023-03-23T04:36:47;12.60;99.90
7196;DHT22;3639;51.308;5.624;2023-03-23T04:39:13;12.70;99.90
7196;DHT22;3639;51.308;5.624;2023-03-23T04:41:39;12.60;99.90
7196;DHT22;3639;51.308;5.624;2023-03-23T04:44:06;12.60;99.90
7196;DHT22;3639;51.308;5.624;2023-03-23T04:46:33;12.60;99.90
7196;DHT22;3639;51.308;5.624;2023-03-23T04:48:59;12.60;99.90
7196;DHT22;3639;51.308;5.624;2023-03-23T04:51:26;12.60;99.90
7196;DHT22;3639;51.308;5.624;2023-03-23T04:53:52;12.60;99.90
7196;DHT22;3639;51.308;5.624;2023-03-23T04:56:18;12.60;99.90
7196;DHT22;3639;51.308;5.624;2023-03-23T04:58:44;12.70;99.90
7196;DHT22;3639;51.308;5.624;2023-03-23T05:01:11;12.70;99.90
7196;DHT22;3639;51.308;5.624;2023-03-23T05:03:41;12.60;99.90
7196;DHT22;3639;51.308;5.624;2023-03-23T05:06:07;12.60;99.90
7196;DHT22;3639;51.308;5.624;2023-03-23T05:08:33;12.60;99.90
7196;DHT22;3639;51.308;5.624;2023-03-23T05:11:00;12.50;99.90
7196;DHT22;3639;51.308;5.624;2023-03-23T05:13:27;12.60;99.90
7196;DHT22;3639;51.308;5.624;2023-03-23T05:15:53;12.60;99.90
7196;DHT22;3639;51.308;5.624;2023-03-23T05:18:19;12.70;99.90
7196;DHT22;3639;51.308;5.624;2023-03-23T05:20:46;12.60;99.90
7196;DHT22;3639;51.308;5.624;2023-03-23T05:23:12;12.60;99.90
7196;DHT22;3639;51.308;5.624;2023-03-23T05:25:38;12.60;99.90
7196;DHT22;3639;51.308;5.624;2023-03-23T05:28:11;12.60;99.90
7196;DHT22;3639;51.308;5.624;2023-03-23T05:30:38;12.50;99.90
7196;DHT22;3639;51.308;5.624;2023-03-23T05:33:04;12.50;99.90
7196;DHT22;3639;51.308;5.624;2023-03-23T05:35:30;12.40;99.90
7196;DHT22;3639;51.308;5.624;2023-03-23T05:37:56;12.40;99.90
7196;DHT22;3639;51.308;5.624;2023-03-23T05:40:22;12.40;99.90
7196;DHT22;3639;51.308;5.624;2023-03-23T05:42:51;12.40;99.90
7196;DHT22;3639;51.308;5.624;2023-03-23T05:45:17;12.40;99.90
7196;DHT22;3639;51.308;5.624;2023-03-23T05:47:43;12.50;99.90
7196;DHT22;3639;51.308;5.624;2023-03-23T05:50:09;12.50;99.90
7196;DHT22;3639;51.308;5.624;2023-03-23T05:52:36;12.50;99.90
7196;DHT22;3639;51.308;5.624;2023-03-23T05:55:03;12.50;99.90
7196;DHT22;3639;51.308;5.624;2023-03-23T05:57:30;12.50;99.90
7196;DHT22;3639;51.308;5.624;2023-03-23T05:59:56;12.50;99.90
7196;DHT22;3639;51.308;5.624;2023-03-23T06:02:23;12.50;99.90
7196;DHT22;3639;51.308;5.624;2023-03-23T06:04:50;12.40;99.90
7196;DHT22;3639;51.308;5.624;2023-03-23T06:07:16;12.40;99.90
7196;DHT22;3639;51.308;5.624;2023-03-23T06:09:42;12.40;99.90
7196;DHT22;3639;51.308;5.624;2023-03-23T06:12:08;12.30;99.90
7196;DHT22;3639;51.308;5.624;2023-03-23T06:14:35;12.40;99.90
7196;DHT22;3639;51.308;5.624;2023-03-23T06:17:02;12.40;99.90
7196;DHT22;3639;51.308;5.624;2023-03-23T06:19:28;12.40;99.90
7196;DHT22;3639;51.308;5.624;2023-03-23T06:21:56;12.40;99.90
7196;DHT22;3639;51.308;5.624;2023-03-23T06:24:22;12.50;99.90
7196;DHT22;3639;51.308;5.624;2023-03-23T06:26:48;12.50;99.90
7196;DHT22;3639;51.308;5.624;2023-03-23T06:29:15;12.50;99.90
7196;DHT22;3639;51.308;5.624;2023-03-23T06:31:48;12.50;99.90
7196;DHT22;3639;51.308;5.624;2023-03-23T06:34:14;12.60;99.90
7196;DHT22;3639;51.308;5.624;2023-03-23T06:36:40;12.50;99.90
7196;DHT22;3639;51.308;5.624;2023-03-23T06:39:05;12.50;99.90
7196;DHT22;3639;51.308;5.624;2023-03-23T06:41:34;12.50;99.90
7196;DHT22;3639;51.308;5.624;2023-03-23T06:44:00;12.60;99.90
7196;DHT22;3639;51.308;5.624;2023-03-23T06:46:26;12.60;99.90
7196;DHT22;3639;51.308;5.624;2023-03-23T06:48:52;12.60;99.90
7196;DHT22;3639;51.308;5.624;2023-03-23T06:51:18;12.70;99.90
7196;DHT22;3639;51.308;5.624;2023-03-23T06:53:44;12.60;99.90
7196;DHT22;3639;51.308;5.624;2023-03-23T06:56:10;12.60;99.90
7196;DHT22;3639;51.308;5.624;2023-03-23T06:58:37;12.70;99.90
7196;DHT22;3639;51.308;5.624;2023-03-23T07:01:03;12.70;99.90
7196;DHT22;3639;51.308;5.624;2023-03-23T07:03:29;12.70;99.90
7196;DHT22;3639;51.308;5.624;2023-03-23T07:05:56;12.70;99.90
7196;DHT22;3639;51.308;5.624;2023-03-23T07:08:22;12.70;99.90
7196;DHT22;3639;51.308;5.624;2023-03-23T07:10:51;12.80;99.90
7196;DHT22;3639;51.308;5.624;2023-03-23T07:13:18;12.80;99.90
7196;DHT22;3639;51.308;5.624;2023-03-23T07:15:44;12.80;99.90
7196;DHT22;3639;51.308;5.624;2023-03-23T07:18:10;12.70;99.90
7196;DHT22;3639;51.308;5.624;2023-03-23T07:20:36;12.70;99.90
7196;DHT22;3639;51.308;5.624;2023-03-23T07:23:02;12.70;99.90
7196;DHT22;3639;51.308;5.624;2023-03-23T07:25:28;12.60;99.90
7196;DHT22;3639;51.308;5.624;2023-03-23T07:27:53;12.70;99.90
7196;DHT22;3639;51.308;5.624;2023-03-23T07:30:19;12.70;99.90
7196;DHT22;3639;51.308;5.624;2023-03-23T07:32:45;12.70;99.90
7196;DHT22;3639;51.308;5.624;2023-03-23T07:35:11;12.70;99.90
7196;DHT22;3639;51.308;5.624;2023-03-23T07:37:36;12.80;99.90
7196;DHT22;3639;51.308;5.624;2023-03-23T07:40:04;12.70;99.90
7196;DHT22;3639;51.308;5.624;2023-03-23T07:42:41;12.80;99.90
7196;DHT22;3639;51.308;5.624;2023-03-23T07:45:08;12.80;99.90
7196;DHT22;3639;51.308;5.624;2023-03-23T07:47:34;12.80;99.90
7196;DHT22;3639;51.308;5.624;2023-03-23T07:50:00;12.90;99.90
7196;DHT22;3639;51.308;5.624;2023-03-23T07:52:26;13.00;99.90
7196;DHT22;3639;51.308;5.624;2023-03-23T07:54:52;13.10;99.90
7196;DHT22;3639;51.308;5.624;2023-03-23T07:57:17;13.10;99.90
7196;DHT22;3639;51.308;5.624;2023-03-23T07:59:43;13.10;99.90
7196;DHT22;3639;51.308;5.624;2023-03-23T08:02:09;13.00;99.90
7196;DHT22;3639;51.308;5.624;2023-03-23T08:04:35;12.90;99.90
7196;DHT22;3639;51.308;5.624;2023-03-23T08:07:03;12.80;99.90
7196;DHT22;3639;51.308;5.624;2023-03-23T08:09:30;12.50;99.90
7196;DHT22;3639;51.308;5.624;2023-03-23T08:11:56;12.30;99.90
7196;DHT22;3639;51.308;5.624;2023-03-23T08:14:22;12.20;99.90
7196;DHT22;3639;51.308;5.624;2023-03-23T08:16:48;12.00;99.90
7196;DHT22;3639;51.308;5.624;2023-03-23T08:19:14;11.90;99.90
7196;DHT22;3639;51.308;5.624;2023-03-23T08:21:40;11.80;99.90
7196;DHT22;3639;51.308;5.624;2023-03-23T08:24:06;11.80;99.90
7196;DHT22;3639;51.308;5.624;2023-03-23T08:26:32;11.70;99.90
7196;DHT22;3639;51.308;5.624;2023-03-23T08:28:57;11.70;99.90
7196;DHT22;3639;51.308;5.624;2023-03-23T08:31:23;11.70;99.90
7196;DHT22;3639;51.308;5.624;2023-03-23T08:33:50;11.60;99.90
7196;DHT22;3639;51.308;5.624;2023-03-23T08:36:16;11.60;99.90
7196;DHT22;3639;51.308;5.624;2023-03-23T08:38:41;11.50;99.90
7196;DHT22;3639;51.308;5.624;2023-03-23T08:41:08;11.30;99.90
7196;DHT22;3639;51.308;5.624;2023-03-23T08:43:34;11.20;99.90
7196;DHT22;3639;51.308;5.624;2023-03-23T08:46:01;11.20;99.90
7196;DHT22;3639;51.308;5.624;2023-03-23T08:48:32;11.10;99.90
7196;DHT22;3639;51.308;5.624;2023-03-23T08:50:59;11.10;99.90
7196;DHT22;3639;51.308;5.624;2023-03-23T08:53:25;11.10;99.90
7196;DHT22;3639;51.308;5.624;2023-03-23T08:55:51;11.10;99.90
7196;DHT22;3639;51.308;5.624;2023-03-23T08:58:17;11.10;99.90
7196;DHT22;3639;51.308;5.624;2023-03-23T09:00:43;11.20;99.90
7196;DHT22;3639;51.308;5.624;2023-03-23T09:03:09;11.20;99.90
7196;DHT22;3639;51.308;5.624;2023-03-23T09:05:34;11.30;99.90
7196;DHT22;3639;51.308;5.624;2023-03-23T09:08:01;11.30;99.90
7196;DHT22;3639;51.308;5.624;2023-03-23T09:10:28;11.30;99.90
7196;DHT22;3639;51.308;5.624;2023-03-23T09:12:55;11.20;99.90
7196;DHT22;3639;51.308;5.624;2023-03-23T09:15:22;11.20;99.90
7196;DHT22;3639;51.308;5.624;2023-03-23T09:17:50;11.20;99.90
7196;DHT22;3639;51.308;5.624;2023-03-23T09:20:20;11.20;99.90
7196;DHT22;3639;51.308;5.624;2023-03-23T09:22:48;11.20;99.90
7196;DHT22;3639;51.308;5.624;2023-03-23T09:25:17;11.20;99.90
7196;DHT22;3639;51.308;5.624;2023-03-23T09:27:45;11.10;99.90
7196;DHT22;3639;51.308;5.624;2023-03-23T09:30:14;11.10;99.90
7196;DHT22;3639;51.308;5.624;2023-03-23T09:32:40;11.10;99.90
7196;DHT22;3639;51.308;5.624;2023-03-23T09:35:08;11.20;99.90
7196;DHT22;3639;51.308;5.624;2023-03-23T09:37:35;11.30;99.90
7196;DHT22;3639;51.308;5.624;2023-03-23T09:40:02;11.40;99.90
7196;DHT22;3639;51.308;5.624;2023-03-23T09:45:29;11.30;99.90
7196;DHT22;3639;51.308;5.624;2023-03-23T09:50:50;11.40;99.90
7196;DHT22;3639;51.308;5.624;2023-03-23T09:53:32;11.40;99.90
7196;DHT22;3639;51.308;5.624;2023-03-23T09:56:01;11.40;99.90
7196;DHT22;3639;51.308;5.624;2023-03-23T09:58:35;11.60;99.90
7196;DHT22;3639;51.308;5.624;2023-03-23T10:03:34;12.00;99.90
7196;DHT22;3639;51.308;5.624;2023-03-23T10:06:03;12.30;99.90
7196;DHT22;3639;51.308;5.624;2023-03-23T10:08:32;12.40;99.90
7196;DHT22;3639;51.308;5.624;2023-03-23T10:11:10;12.30;99.90
7196;DHT22;3639;51.308;5.624;2023-03-23T10:16:07;12.30;99.90
7196;DHT22;3639;51.308;5.624;2023-03-23T10:19:18;12.30;99.90
7196;DHT22;3639;51.308;5.624;2023-03-23T10:21:34;12.20;99.90
7196;DHT22;3639;51.308;5.624;2023-03-23T10:24:04;12.20;99.90
7196;DHT22;3639;51.308;5.624;2023-03-23T10:27:01;12.10;99.90
7196;DHT22;3639;51.308;5.624;2023-03-23T10:29:39;12.10;99.90
7196;DHT22;3639;51.308;5.624;2023-03-23T10:32:12;12.10;99.90
7196;DHT22;3639;51.308;5.624;2023-03-23T10:34:55;12.20;99.90
7196;DHT22;3639;51.308;5.624;2023-03-23T10:37:31;12.30;99.90
7196;DHT22;3639;51.308;5.624;2023-03-23T10:40:00;12.40;99.90
7196;DHT22;3639;51.308;5.624;2023-03-23T10:42:34;12.50;99.90
7196;DHT22;3639;51.308;5.624;2023-03-23T10:45:19;12.50;99.90
7196;DHT22;3639;51.308;5.624;2023-03-23T10:47:53;12.60;99.90
7196;DHT22;3639;51.308;5.624;2023-03-23T10:50:27;12.70;99.90
7196;DHT22;3639;51.308;5.624;2023-03-23T10:52:54;12.70;99.90
7196;DHT22;3639;51.308;5.624;2023-03-23T10:55:23;12.80;99.90
7196;DHT22;3639;51.308;5.624;2023-03-23T10:58:08;12.90;99.90
7196;DHT22;3639;51.308;5.624;2023-03-23T11:00:41;13.20;99.90
7196;DHT22;3639;51.308;5.624;2023-03-23T11:08:24;13.50;99.90
7196;DHT22;3639;51.308;5.624;2023-03-23T11:10:54;13.70;99.90
7196;DHT22;3639;51.308;5.624;2023-03-23T11:13:22;13.80;99.90
7196;DHT22;3639;51.308;5.624;2023-03-23T11:15:49;13.90;99.90
7196;DHT22;3639;51.308;5.624;2023-03-23T11:18:39;14.10;99.90
7196;DHT22;3639;51.308;5.624;2023-03-23T11:21:06;14.00;99.90
7196;DHT22;3639;51.308;5.624;2023-03-23T11:23:39;14.00;99.90
7196;DHT22;3639;51.308;5.624;2023-03-23T11:26:27;14.00;99.90
7196;DHT22;3639;51.308;5.624;2023-03-23T11:29:12;14.10;99.90
7196;DHT22;3639;51.308;5.624;2023-03-23T11:31:49;14.20;99.90
7196;DHT22;3639;51.308;5.624;2023-03-23T11:34:40;14.30;99.90
7196;DHT22;3639;51.308;5.624;2023-03-23T11:37:37;14.30;99.90
7196;DHT22;3639;51.308;5.624;2023-03-23T11:45:30;14.30;99.90
7196;DHT22;3639;51.308;5.624;2023-03-23T11:51:00;14.40;99.90
7196;DHT22;3639;51.308;5.624;2023-03-23T11:56:38;14.70;99.90
7196;DHT22;3639;51.308;5.624;2023-03-23T11:59:10;15.10;99.90
7196;DHT22;3639;51.308;5.624;2023-03-23T12:01:46;15.30;99.90
7196;DHT22;3639;51.308;5.624;2023-03-23T12:07:37;15.30;99.90
7196;DHT22;3639;51.308;5.624;2023-03-23T12:12:50;15.10;99.90
7196;DHT22;3639;51.308;5.624;2023-03-23T12:26:14;14.70;99.90
7196;DHT22;3639;51.308;5.624;2023-03-23T12:48:00;15.80;99.90
7196;DHT22;3639;51.308;5.624;2023-03-23T12:53:26;15.90;99.90
7196;DHT22;3639;51.308;5.624;2023-03-23T13:01:57;15.80;99.90
7196;DHT22;3639;51.308;5.624;2023-03-23T13:04:30;15.80;99.90
7196;DHT22;3639;51.308;5.624;2023-03-23T13:06:58;15.80;99.90
7196;DHT22;3639;51.308;5.624;2023-03-23T13:10:15;15.70;99.90
7196;DHT22;3639;51.308;5.624;2023-03-23T13:12:22;15.70;99.90
7196;DHT22;3639;51.308;5.624;2023-03-23T13:15:20;15.80;99.90
7196;DHT22;3639;51.308;5.624;2023-03-23T13:17:53;15.90;99.90
7196;DHT22;3639;51.308;5.624;2023-03-23T13:20:41;16.10;99.90
7196;DHT22;3639;51.308;5.624;2023-03-23T13:23:18;16.10;99.90
7196;DHT22;3639;51.308;5.624;2023-03-23T13:26:03;16.20;99.90
7196;DHT22;3639;51.308;5.624;2023-03-23T13:28:33;16.30;99.90
7196;DHT22;3639;51.308;5.624;2023-03-23T13:33:29;16.40;99.90
7196;DHT22;3639;51.308;5.624;2023-03-23T13:35:55;16.40;99.90
7196;DHT22;3639;51.308;5.624;2023-03-23T13:38:27;16.50;99.90
7196;DHT22;3639;51.308;5.624;2023-03-23T13:40:54;16.60;99.90
7196;DHT22;3639;51.308;5.624;2023-03-23T13:43:32;16.60;99.90
7196;DHT22;3639;51.308;5.624;2023-03-23T13:57:02;16.10;99.90
7196;DHT22;3639;51.308;5.624;2023-03-23T14:01:54;16.30;99.90
7196;DHT22;3639;51.308;5.624;2023-03-23T14:04:21;16.20;99.90
7196;DHT22;3639;51.308;5.624;2023-03-23T14:06:49;16.20;99.90
7196;DHT22;3639;51.308;5.624;2023-03-23T14:09:21;16.20;99.90
7196;DHT22;3639;51.308;5.624;2023-03-23T14:12:17;16.30;99.90
7196;DHT22;3639;51.308;5.624;2023-03-23T14:14:46;16.40;99.90
7196;DHT22;3639;51.308;5.624;2023-03-23T14:17:16;16.40;99.90
7196;DHT22;3639;51.308;5.624;2023-03-23T14:19:46;16.20;99.90
7196;DHT22;3639;51.308;5.624;2023-03-23T14:22:33;16.10;99.90
7196;DHT22;3639;51.308;5.624;2023-03-23T14:25:08;16.10;99.90
7196;DHT22;3639;51.308;5.624;2023-03-23T14:27:35;16.30;99.90
7196;DHT22;3639;51.308;5.624;2023-03-23T14:30:03;16.20;99.90
7196;DHT22;3639;51.308;5.624;2023-03-23T14:32:31;16.20;99.90
7196;DHT22;3639;51.308;5.624;2023-03-23T14:34:59;16.20;99.90
7196;DHT22;3639;51.308;5.624;2023-03-23T14:37:26;16.10;99.90
7196;DHT22;3639;51.308;5.624;2023-03-23T14:39:53;16.00;99.90
7196;DHT22;3639;51.308;5.624;2023-03-23T14:42:28;16.00;99.90
7196;DHT22;3639;51.308;5.624;2023-03-23T14:44:55;16.00;99.90
7196;DHT22;3639;51.308;5.624;2023-03-23T14:47:33;16.00;99.90
7196;DHT22;3639;51.308;5.624;2023-03-23T14:50:01;16.00;99.90
7196;DHT22;3639;51.308;5.624;2023-03-23T14:52:33;15.90;99.90
7196;DHT22;3639;51.308;5.624;2023-03-23T14:55:19;15.90;99.90
7196;DHT22;3639;51.308;5.624;2023-03-23T14:57:47;15.90;99.90
7196;DHT22;3639;51.308;5.624;2023-03-23T15:00:32;15.90;99.90
7196;DHT22;3639;51.308;5.624;2023-03-23T15:03:01;15.90;99.90
7196;DHT22;3639;51.308;5.624;2023-03-23T15:05:34;16.00;99.90
7196;DHT22;3639;51.308;5.624;2023-03-23T15:08:19;16.20;99.90
7196;DHT22;3639;51.308;5.624;2023-03-23T15:11:03;16.20;99.90
7196;DHT22;3639;51.308;5.624;2023-03-23T15:13:29;16.20;99.90
7196;DHT22;3639;51.308;5.624;2023-03-23T15:16:07;16.10;99.90
7196;DHT22;3639;51.308;5.624;2023-03-23T15:18:39;16.10;99.90
7196;DHT22;3639;51.308;5.624;2023-03-23T15:21:20;16.00;99.90
7196;DHT22;3639;51.308;5.624;2023-03-23T15:23:46;16.00;99.90
7196;DHT22;3639;51.308;5.624;2023-03-23T15:26:27;15.90;99.90
7196;DHT22;3639;51.308;5.624;2023-03-23T15:29:18;15.90;99.90
7196;DHT22;3639;51.308;5.624;2023-03-23T15:31:48;15.80;99.90
7196;DHT22;3639;51.308;5.624;2023-03-23T15:34:34;15.70;99.90
7196;DHT22;3639;51.308;5.624;2023-03-23T15:37:13;15.80;99.90
7196;DHT22;3639;51.308;5.624;2023-03-23T15:39:44;15.80;99.90
7196;DHT22;3639;51.308;5.624;2023-03-23T15:42:30;15.60;99.90
7196;DHT22;3639;51.308;5.624;2023-03-23T15:47:47;15.70;99.90
7196;DHT22;3639;51.308;5.624;2023-03-23T15:50:31;15.70;99.90
7196;DHT22;3639;51.308;5.624;2023-03-23T15:52:57;15.60;99.90
7196;DHT22;3639;51.308;5.624;2023-03-23T15:55:26;15.60;99.90
7196;DHT22;3639;51.308;5.624;2023-03-23T15:57:54;15.60;99.90
7196;DHT22;3639;51.308;5.624;2023-03-23T16:00:21;15.60;99.90
7196;DHT22;3639;51.308;5.624;2023-03-23T16:02:51;15.60;99.90
7196;DHT22;3639;51.308;5.624;2023-03-23T16:05:18;15.60;99.90
7196;DHT22;3639;51.308;5.624;2023-03-23T16:07:44;15.60;99.90
7196;DHT22;3639;51.308;5.624;2023-03-23T16:10:35;15.60;99.90
7196;DHT22;3639;51.308;5.624;2023-03-23T16:13:01;15.50;99.90
7196;DHT22;3639;51.308;5.624;2023-03-23T16:15:27;15.50;99.90
7196;DHT22;3639;51.308;5.624;2023-03-23T16:17:52;15.40;99.90
7196;DHT22;3639;51.308;5.624;2023-03-23T16:20:20;15.40;99.90
7196;DHT22;3639;51.308;5.624;2023-03-23T16:22:47;15.40;99.90
7196;DHT22;3639;51.308;5.624;2023-03-23T16:25:14;15.20;99.90
7196;DHT22;3639;51.308;5.624;2023-03-23T16:27:40;15.10;99.90
7196;DHT22;3639;51.308;5.624;2023-03-23T16:30:22;15.00;99.90
7196;DHT22;3639;51.308;5.624;2023-03-23T16:32:48;15.00;99.90
7196;DHT22;3639;51.308;5.624;2023-03-23T16:35:14;15.00;99.90
7196;DHT22;3639;51.308;5.624;2023-03-23T16:37:48;15.00;99.90
7196;DHT22;3639;51.308;5.624;2023-03-23T16:40:15;15.10;99.90
7196;DHT22;3639;51.308;5.624;2023-03-23T16:42:41;15.20;99.90
7196;DHT22;3639;51.308;5.624;2023-03-23T16:45:07;15.30;99.90
7196;DHT22;3639;51.308;5.624;2023-03-23T16:47:33;15.20;99.90
7196;DHT22;3639;51.308;5.624;2023-03-23T16:49:58;15.20;99.90
7196;DHT22;3639;51.308;5.624;2023-03-23T16:52:24;15.10;99.90
7196;DHT22;3639;51.308;5.624;2023-03-23T16:54:50;15.10;99.90
7196;DHT22;3639;51.308;5.624;2023-03-23T16:57:16;15.10;99.90
7196;DHT22;3639;51.308;5.624;2023-03-23T16:59:41;15.10;99.90
7196;DHT22;3639;51.308;5.624;2023-03-23T17:02:10;15.00;99.90
7196;DHT22;3639;51.308;5.624;2023-03-23T17:04:35;14.80;99.90
7196;DHT22;3639;51.308;5.624;2023-03-23T17:07:02;14.70;99.90
7196;DHT22;3639;51.308;5.624;2023-03-23T17:09:27;14.70;99.90
7196;DHT22;3639;51.308;5.624;2023-03-23T17:11:53;14.60;99.90
7196;DHT22;3639;51.308;5.624;2023-03-23T17:14:20;14.50;99.90
7196;DHT22;3639;51.308;5.624;2023-03-23T17:16:46;14.50;99.90
7196;DHT22;3639;51.308;5.624;2023-03-23T17:19:12;14.50;99.90
7196;DHT22;3639;51.308;5.624;2023-03-23T17:21:39;14.50;99.90
7196;DHT22;3639;51.308;5.624;2023-03-23T17:24:05;14.50;99.90
7196;DHT22;3639;51.308;5.624;2023-03-23T17:26:31;14.50;99.90
7196;DHT22;3639;51.308;5.624;2023-03-23T17:28:56;14.40;99.90
7196;DHT22;3639;51.308;5.624;2023-03-23T17:31:22;14.50;99.90
7196;DHT22;3639;51.308;5.624;2023-03-23T17:33:48;14.50;99.90
7196;DHT22;3639;51.308;5.624;2023-03-23T17:36:13;14.50;99.90
7196;DHT22;3639;51.308;5.624;2023-03-23T17:38:39;14.60;99.90
7196;DHT22;3639;51.308;5.624;2023-03-23T17:41:05;14.60;99.90
7196;DHT22;3639;51.308;5.624;2023-03-23T17:43:32;14.50;99.90
7196;DHT22;3639;51.308;5.624;2023-03-23T17:45:59;14.50;99.90
7196;DHT22;3639;51.308;5.624;2023-03-23T17:48:25;14.50;99.90
7196;DHT22;3639;51.308;5.624;2023-03-23T17:50:54;14.50;99.90
7196;DHT22;3639;51.308;5.624;2023-03-23T17:53:22;14.40;99.90
7196;DHT22;3639;51.308;5.624;2023-03-23T17:55:50;14.40;99.90
7196;DHT22;3639;51.308;5.624;2023-03-23T17:58:16;14.50;99.90
7196;DHT22;3639;51.308;5.624;2023-03-23T18:00:41;14.50;99.90
7196;DHT22;3639;51.308;5.624;2023-03-23T18:03:07;14.60;99.90
7196;DHT22;3639;51.308;5.624;2023-03-23T18:05:34;14.60;99.90
7196;DHT22;3639;51.308;5.624;2023-03-23T18:08:02;14.60;99.90
7196;DHT22;3639;51.308;5.624;2023-03-23T18:10:28;14.50;99.90
7196;DHT22;3639;51.308;5.624;2023-03-23T18:12:54;14.50;99.90
7196;DHT22;3639;51.308;5.624;2023-03-23T18:15:19;14.50;99.90
7196;DHT22;3639;51.308;5.624;2023-03-23T18:17:45;14.50;99.90